sensor_id;sensor_type;location;lat;lon;timestamp;P1;durP1;ratioP1;P2;durP2;ratioP2
24102;SDS011;12278;53.058;9.028;2023-02-01T00:02:25;17.43;;;4.20;;
24102;SDS011;12278;53.058;9.028;2023-02-01T00:10:36;15.10;;;3.97;;
24102;SDS011;12278;53.058;9.028;2023-02-01T00:14:36;14.67;;;3.70;;
24102;SDS011;12278;53.058;9.028;2023-02-01T00:18:39;12.53;;;3.93;;
24102;SDS011;12278;53.058;9.028;2023-02-01T00:22:40;13.17;;;2.90;;
24102;SDS011;12278;53.058;9.028;2023-02-01T00:26:41;15.47;;;3.67;;
24102;SDS011;12278;53.058;9.028;2023-02-01T00:30:43;18.27;;;4.43;;
24102;SDS011;12278;53.058;9.028;2023-02-01T00:34:47;18.77;;;4.00;;
24102;SDS011;12278;53.058;9.028;2023-02-01T00:38:48;15.23;;;3.47;;
24102;SDS011;12278;53.058;9.028;2023-02-01T00:42:49;17.87;;;4.90;;
24102;SDS011;12278;53.058;9.028;2023-02-01T00:46:49;18.13;;;4.67;;
24102;SDS011;12278;53.058;9.028;2023-02-01T00:50:50;9.60;;;3.40;;
24102;SDS011;12278;53.058;9.028;2023-02-01T00:54:51;13.90;;;5.20;;
24102;SDS011;12278;53.058;9.028;2023-02-01T00:58:51;8.10;;;4.97;;
24102;SDS011;12278;53.058;9.028;2023-02-01T01:02:52;15.67;;;3.63;;
24102;SDS011;12278;53.058;9.028;2023-02-01T01:06:53;14.57;;;3.90;;
24102;SDS011;12278;53.058;9.028;2023-02-01T01:10:53;13.83;;;4.27;;
24102;SDS011;12278;53.058;9.028;2023-02-01T01:14:54;23.00;;;4.00;;
24102;SDS011;12278;53.058;9.028;2023-02-01T01:19:12;16.33;;;3.73;;
24102;SDS011;12278;53.058;9.028;2023-02-01T01:23:13;15.27;;;3.87;;
24102;SDS011;12278;53.058;9.028;2023-02-01T01:27:14;15.83;;;4.27;;
24102;SDS011;12278;53.058;9.028;2023-02-01T01:31:16;21.37;;;3.90;;
24102;SDS011;12278;53.058;9.028;2023-02-01T01:35:18;12.20;;;4.13;;
24102;SDS011;12278;53.058;9.028;2023-02-01T01:39:18;17.73;;;4.50;;
24102;SDS011;12278;53.058;9.028;2023-02-01T01:43:20;9.30;;;3.73;;
24102;SDS011;12278;53.058;9.028;2023-02-01T01:47:24;13.57;;;3.87;;
24102;SDS011;12278;53.058;9.028;2023-02-01T01:51:28;13.63;;;3.40;;
24102;SDS011;12278;53.058;9.028;2023-02-01T01:55:32;10.03;;;4.10;;
24102;SDS011;12278;53.058;9.028;2023-02-01T01:59:48;11.03;;;3.80;;
24102;SDS011;12278;53.058;9.028;2023-02-01T02:03:56;14.80;;;4.30;;
24102;SDS011;12278;53.058;9.028;2023-02-01T02:07:58;18.87;;;4.00;;
24102;SDS011;12278;53.058;9.028;2023-02-01T02:12:00;10.77;;;4.20;;
24102;SDS011;12278;53.058;9.028;2023-02-01T02:16:23;18.40;;;5.40;;
24102;SDS011;12278;53.058;9.028;2023-02-01T02:20:30;13.80;;;3.97;;
24102;SDS011;12278;53.058;9.028;2023-02-01T02:24:57;12.60;;;2.77;;
24102;SDS011;12278;53.058;9.028;2023-02-01T02:29:26;19.23;;;4.33;;
24102;SDS011;12278;53.058;9.028;2023-02-01T02:37:42;12.43;;;3.93;;
24102;SDS011;12278;53.058;9.028;2023-02-01T02:46:41;12.87;;;3.40;;
24102;SDS011;12278;53.058;9.028;2023-02-01T02:51:08;12.57;;;4.20;;
24102;SDS011;12278;53.058;9.028;2023-02-01T02:55:50;15.13;;;4.17;;
24102;SDS011;12278;53.058;9.028;2023-02-01T02:59:52;17.07;;;4.50;;
24102;SDS011;12278;53.058;9.028;2023-02-01T03:04:12;15.27;;;4.00;;
24102;SDS011;12278;53.058;9.028;2023-02-01T03:08:18;16.90;;;4.10;;
24102;SDS011;12278;53.058;9.028;2023-02-01T03:12:21;11.63;;;3.03;;
24102;SDS011;12278;53.058;9.028;2023-02-01T03:16:41;7.53;;;3.50;;
24102;SDS011;12278;53.058;9.028;2023-02-01T03:20:49;12.90;;;3.40;;
24102;SDS011;12278;53.058;9.028;2023-02-01T03:24:56;12.00;;;3.50;;
24102;SDS011;12278;53.058;9.028;2023-02-01T03:29:21;14.60;;;4.53;;
24102;SDS011;12278;53.058;9.028;2023-02-01T03:33:26;13.43;;;3.57;;
24102;SDS011;12278;53.058;9.028;2023-02-01T03:37:30;14.47;;;3.20;;
24102;SDS011;12278;53.058;9.028;2023-02-01T03:41:47;14.93;;;4.03;;
24102;SDS011;12278;53.058;9.028;2023-02-01T03:46:09;13.30;;;4.03;;
24102;SDS011;12278;53.058;9.028;2023-02-01T03:50:21;5.97;;;2.70;;
24102;SDS011;12278;53.058;9.028;2023-02-01T03:54:25;16.77;;;4.67;;
24102;SDS011;12278;53.058;9.028;2023-02-01T03:58:28;10.20;;;3.20;;
24102;SDS011;12278;53.058;9.028;2023-02-01T04:02:30;6.97;;;3.47;;
24102;SDS011;12278;53.058;9.028;2023-02-01T04:06:31;14.77;;;4.43;;
24102;SDS011;12278;53.058;9.028;2023-02-01T04:10:43;13.27;;;3.60;;
24102;SDS011;12278;53.058;9.028;2023-02-01T04:14:44;8.27;;;3.63;;
24102;SDS011;12278;53.058;9.028;2023-02-01T04:18:44;8.23;;;3.30;;
24102;SDS011;12278;53.058;9.028;2023-02-01T04:27:15;8.57;;;2.60;;
24102;SDS011;12278;53.058;9.028;2023-02-01T04:31:16;10.63;;;2.30;;
24102;SDS011;12278;53.058;9.028;2023-02-01T04:35:24;7.57;;;3.50;;
24102;SDS011;12278;53.058;9.028;2023-02-01T04:43:56;12.73;;;3.40;;
24102;SDS011;12278;53.058;9.028;2023-02-01T04:47:57;11.17;;;3.33;;
24102;SDS011;12278;53.058;9.028;2023-02-01T04:51:59;6.63;;;2.70;;
24102;SDS011;12278;53.058;9.028;2023-02-01T04:55:59;13.97;;;4.17;;
24102;SDS011;12278;53.058;9.028;2023-02-01T05:04:18;8.40;;;3.47;;
24102;SDS011;12278;53.058;9.028;2023-02-01T05:08:20;18.73;;;4.93;;
24102;SDS011;12278;53.058;9.028;2023-02-01T05:12:42;12.47;;;4.33;;
24102;SDS011;12278;53.058;9.028;2023-02-01T05:17:02;13.60;;;3.97;;
24102;SDS011;12278;53.058;9.028;2023-02-01T05:21:03;12.57;;;4.70;;
24102;SDS011;12278;53.058;9.028;2023-02-01T05:29:09;15.33;;;3.83;;
24102;SDS011;12278;53.058;9.028;2023-02-01T05:33:10;6.60;;;3.67;;
24102;SDS011;12278;53.058;9.028;2023-02-01T05:37:13;10.37;;;3.37;;
24102;SDS011;12278;53.058;9.028;2023-02-01T05:41:14;9.30;;;3.10;;
24102;SDS011;12278;53.058;9.028;2023-02-01T05:45:14;6.27;;;3.10;;
24102;SDS011;12278;53.058;9.028;2023-02-01T05:49:15;8.07;;;2.40;;
24102;SDS011;12278;53.058;9.028;2023-02-01T05:53:15;8.93;;;3.53;;
24102;SDS011;12278;53.058;9.028;2023-02-01T05:57:17;13.50;;;3.00;;
24102;SDS011;12278;53.058;9.028;2023-02-01T06:01:21;12.80;;;3.80;;
24102;SDS011;12278;53.058;9.028;2023-02-01T06:05:22;4.97;;;3.17;;
24102;SDS011;12278;53.058;9.028;2023-02-01T06:09:30;7.97;;;3.17;;
24102;SDS011;12278;53.058;9.028;2023-02-01T06:13:34;9.33;;;3.10;;
24102;SDS011;12278;53.058;9.028;2023-02-01T06:17:35;10.20;;;3.17;;
24102;SDS011;12278;53.058;9.028;2023-02-01T06:21:37;8.07;;;3.40;;
24102;SDS011;12278;53.058;9.028;2023-02-01T06:25:37;12.03;;;3.20;;
24102;SDS011;12278;53.058;9.028;2023-02-01T06:29:38;10.23;;;3.60;;
24102;SDS011;12278;53.058;9.028;2023-02-01T06:33:39;10.03;;;3.57;;
24102;SDS011;12278;53.058;9.028;2023-02-01T06:42:12;7.57;;;3.03;;
24102;SDS011;12278;53.058;9.028;2023-02-01T06:46:13;13.33;;;4.40;;
24102;SDS011;12278;53.058;9.028;2023-02-01T06:50:21;9.60;;;3.37;;
24102;SDS011;12278;53.058;9.028;2023-02-01T06:54:22;14.03;;;3.27;;
24102;SDS011;12278;53.058;9.028;2023-02-01T06:58:23;8.47;;;3.23;;
24102;SDS011;12278;53.058;9.028;2023-02-01T07:02:24;12.67;;;4.27;;
24102;SDS011;12278;53.058;9.028;2023-02-01T07:06:25;10.57;;;3.70;;
24102;SDS011;12278;53.058;9.028;2023-02-01T07:10:25;17.33;;;3.57;;
24102;SDS011;12278;53.058;9.028;2023-02-01T07:14:26;10.97;;;3.37;;
24102;SDS011;12278;53.058;9.028;2023-02-01T07:18:27;5.70;;;3.17;;
24102;SDS011;12278;53.058;9.028;2023-02-01T07:22:41;14.07;;;3.63;;
24102;SDS011;12278;53.058;9.028;2023-02-01T07:26:42;10.43;;;3.40;;
24102;SDS011;12278;53.058;9.028;2023-02-01T07:30:42;10.60;;;3.20;;
24102;SDS011;12278;53.058;9.028;2023-02-01T07:34:44;10.60;;;2.73;;
24102;SDS011;12278;53.058;9.028;2023-02-01T07:38:45;9.77;;;3.67;;
24102;SDS011;12278;53.058;9.028;2023-02-01T07:42:50;10.00;;;2.93;;
24102;SDS011;12278;53.058;9.028;2023-02-01T07:46:51;5.00;;;2.50;;
24102;SDS011;12278;53.058;9.028;2023-02-01T07:54:58;6.73;;;3.20;;
24102;SDS011;12278;53.058;9.028;2023-02-01T07:58:59;9.80;;;3.07;;
24102;SDS011;12278;53.058;9.028;2023-02-01T08:03:00;14.93;;;4.13;;
24102;SDS011;12278;53.058;9.028;2023-02-01T08:07:01;11.70;;;3.93;;
24102;SDS011;12278;53.058;9.028;2023-02-01T08:11:02;18.30;;;3.90;;
24102;SDS011;12278;53.058;9.028;2023-02-01T08:15:05;17.53;;;3.20;;
24102;SDS011;12278;53.058;9.028;2023-02-01T08:19:06;15.40;;;4.97;;
24102;SDS011;12278;53.058;9.028;2023-02-01T08:23:09;10.27;;;3.73;;
24102;SDS011;12278;53.058;9.028;2023-02-01T08:27:10;9.73;;;3.23;;
24102;SDS011;12278;53.058;9.028;2023-02-01T08:31:13;11.90;;;3.43;;
24102;SDS011;12278;53.058;9.028;2023-02-01T08:35:15;7.37;;;2.80;;
24102;SDS011;12278;53.058;9.028;2023-02-01T08:39:16;8.63;;;3.27;;
24102;SDS011;12278;53.058;9.028;2023-02-01T08:43:18;13.07;;;3.53;;
24102;SDS011;12278;53.058;9.028;2023-02-01T08:47:19;12.57;;;2.90;;
24102;SDS011;12278;53.058;9.028;2023-02-01T08:51:20;9.53;;;2.83;;
24102;SDS011;12278;53.058;9.028;2023-02-01T08:55:22;15.33;;;4.20;;
24102;SDS011;12278;53.058;9.028;2023-02-01T08:59:22;15.53;;;3.27;;
24102;SDS011;12278;53.058;9.028;2023-02-01T09:03:23;15.27;;;5.40;;
24102;SDS011;12278;53.058;9.028;2023-02-01T09:07:24;7.00;;;2.37;;
24102;SDS011;12278;53.058;9.028;2023-02-01T09:11:25;5.60;;;3.00;;
24102;SDS011;12278;53.058;9.028;2023-02-01T09:15:26;10.70;;;2.80;;
24102;SDS011;12278;53.058;9.028;2023-02-01T09:19:27;10.07;;;2.77;;
24102;SDS011;12278;53.058;9.028;2023-02-01T09:23:27;12.67;;;3.07;;
24102;SDS011;12278;53.058;9.028;2023-02-01T09:27:28;13.37;;;3.03;;
24102;SDS011;12278;53.058;9.028;2023-02-01T09:31:29;12.17;;;2.70;;
24102;SDS011;12278;53.058;9.028;2023-02-01T09:35:30;13.33;;;4.03;;
24102;SDS011;12278;53.058;9.028;2023-02-01T09:39:31;10.67;;;3.10;;
24102;SDS011;12278;53.058;9.028;2023-02-01T09:43:47;14.20;;;3.53;;
24102;SDS011;12278;53.058;9.028;2023-02-01T09:48:12;11.23;;;3.00;;
24102;SDS011;12278;53.058;9.028;2023-02-01T09:52:16;11.03;;;3.13;;
24102;SDS011;12278;53.058;9.028;2023-02-01T09:57:08;18.23;;;3.30;;
24102;SDS011;12278;53.058;9.028;2023-02-01T10:00:51;13.33;;;3.10;;
24102;SDS011;12278;53.058;9.028;2023-02-01T10:04:54;8.10;;;3.20;;
24102;SDS011;12278;53.058;9.028;2023-02-01T10:13:30;19.23;;;3.43;;
24102;SDS011;12278;53.058;9.028;2023-02-01T10:22:11;10.70;;;2.70;;
24102;SDS011;12278;53.058;9.028;2023-02-01T10:26:20;11.20;;;3.00;;
24102;SDS011;12278;53.058;9.028;2023-02-01T10:30:27;8.87;;;3.00;;
24102;SDS011;12278;53.058;9.028;2023-02-01T10:34:31;9.00;;;2.63;;
24102;SDS011;12278;53.058;9.028;2023-02-01T10:38:34;8.57;;;3.07;;
24102;SDS011;12278;53.058;9.028;2023-02-01T10:42:35;12.87;;;3.63;;
24102;SDS011;12278;53.058;9.028;2023-02-01T10:46:36;9.27;;;3.10;;
24102;SDS011;12278;53.058;9.028;2023-02-01T10:50:38;8.87;;;3.33;;
24102;SDS011;12278;53.058;9.028;2023-02-01T10:54:51;14.43;;;3.90;;
24102;SDS011;12278;53.058;9.028;2023-02-01T10:59:03;14.50;;;4.10;;
24102;SDS011;12278;53.058;9.028;2023-02-01T11:07:27;10.07;;;2.93;;
24102;SDS011;12278;53.058;9.028;2023-02-01T11:16:14;8.50;;;3.07;;
24102;SDS011;12278;53.058;9.028;2023-02-01T11:20:16;6.77;;;2.43;;
24102;SDS011;12278;53.058;9.028;2023-02-01T11:24:23;9.57;;;3.57;;
24102;SDS011;12278;53.058;9.028;2023-02-01T11:28:27;8.03;;;3.20;;
24102;SDS011;12278;53.058;9.028;2023-02-01T11:32:33;5.83;;;2.90;;
24102;SDS011;12278;53.058;9.028;2023-02-01T11:36:34;6.87;;;2.37;;
24102;SDS011;12278;53.058;9.028;2023-02-01T11:40:37;9.43;;;3.87;;
24102;SDS011;12278;53.058;9.028;2023-02-01T11:44:42;7.43;;;3.60;;
24102;SDS011;12278;53.058;9.028;2023-02-01T11:48:44;6.60;;;2.90;;
24102;SDS011;12278;53.058;9.028;2023-02-01T12:06:18;3.63;;;1.73;;
24102;SDS011;12278;53.058;9.028;2023-02-01T12:10:18;14.77;;;3.27;;
24102;SDS011;12278;53.058;9.028;2023-02-01T12:14:32;7.67;;;2.43;;
24102;SDS011;12278;53.058;9.028;2023-02-01T12:19:00;4.27;;;2.70;;
24102;SDS011;12278;53.058;9.028;2023-02-01T12:31:49;2.73;;;1.53;;
24102;SDS011;12278;53.058;9.028;2023-02-01T12:36:12;2.93;;;0.77;;
24102;SDS011;12278;53.058;9.028;2023-02-01T12:44:32;0.20;;;0.20;;
24102;SDS011;12278;53.058;9.028;2023-02-01T12:48:52;1.60;;;0.50;;
24102;SDS011;12278;53.058;9.028;2023-02-01T12:53:19;0.67;;;0.50;;
24102;SDS011;12278;53.058;9.028;2023-02-01T12:57:28;0.90;;;0.50;;
24102;SDS011;12278;53.058;9.028;2023-02-01T13:06:01;3.13;;;2.10;;
24102;SDS011;12278;53.058;9.028;2023-02-01T13:10:18;3.13;;;1.37;;
24102;SDS011;12278;53.058;9.028;2023-02-01T13:19:00;1.90;;;0.83;;
24102;SDS011;12278;53.058;9.028;2023-02-01T13:23:30;2.67;;;0.67;;
24102;SDS011;12278;53.058;9.028;2023-02-01T13:27:37;0.57;;;0.50;;
24102;SDS011;12278;53.058;9.028;2023-02-01T13:36:23;2.40;;;0.83;;
24102;SDS011;12278;53.058;9.028;2023-02-01T13:44:33;4.13;;;1.40;;
24102;SDS011;12278;53.058;9.028;2023-02-01T13:52:53;3.97;;;1.50;;
24102;SDS011;12278;53.058;9.028;2023-02-01T13:56:54;5.57;;;1.40;;
24102;SDS011;12278;53.058;9.028;2023-02-01T14:09:32;5.70;;;2.40;;
24102;SDS011;12278;53.058;9.028;2023-02-01T14:13:40;4.90;;;1.40;;
24102;SDS011;12278;53.058;9.028;2023-02-01T14:30:42;4.63;;;1.53;;
24102;SDS011;12278;53.058;9.028;2023-02-01T14:38:51;6.40;;;2.00;;
24102;SDS011;12278;53.058;9.028;2023-02-01T14:42:53;10.00;;;2.20;;
24102;SDS011;12278;53.058;9.028;2023-02-01T14:51:24;12.40;;;2.47;;
24102;SDS011;12278;53.058;9.028;2023-02-01T14:55:33;6.37;;;2.53;;
24102;SDS011;12278;53.058;9.028;2023-02-01T14:59:59;12.10;;;2.57;;
24102;SDS011;12278;53.058;9.028;2023-02-01T15:04:19;13.80;;;2.83;;
24102;SDS011;12278;53.058;9.028;2023-02-01T15:08:25;10.43;;;3.10;;
24102;SDS011;12278;53.058;9.028;2023-02-01T15:12:35;8.20;;;3.37;;
24102;SDS011;12278;53.058;9.028;2023-02-01T15:16:47;8.73;;;3.10;;
24102;SDS011;12278;53.058;9.028;2023-02-01T15:21:04;11.87;;;2.70;;
24102;SDS011;12278;53.058;9.028;2023-02-01T15:29:40;11.43;;;3.77;;
24102;SDS011;12278;53.058;9.028;2023-02-01T15:46:52;11.37;;;3.00;;
24102;SDS011;12278;53.058;9.028;2023-02-01T15:50:53;11.73;;;3.43;;
24102;SDS011;12278;53.058;9.028;2023-02-01T15:54:56;11.57;;;4.67;;
24102;SDS011;12278;53.058;9.028;2023-02-01T15:59:02;11.97;;;3.30;;
24102;SDS011;12278;53.058;9.028;2023-02-01T16:03:26;10.87;;;2.97;;
24102;SDS011;12278;53.058;9.028;2023-02-01T16:07:29;12.50;;;3.17;;
24102;SDS011;12278;53.058;9.028;2023-02-01T16:11:32;11.97;;;4.63;;
24102;SDS011;12278;53.058;9.028;2023-02-01T16:15:40;5.87;;;2.57;;
24102;SDS011;12278;53.058;9.028;2023-02-01T16:19:41;5.07;;;2.23;;
24102;SDS011;12278;53.058;9.028;2023-02-01T16:23:41;4.43;;;1.67;;
24102;SDS011;12278;53.058;9.028;2023-02-01T16:27:42;3.47;;;1.50;;
24102;SDS011;12278;53.058;9.028;2023-02-01T16:31:42;3.37;;;0.90;;
24102;SDS011;12278;53.058;9.028;2023-02-01T16:35:43;5.03;;;1.17;;
24102;SDS011;12278;53.058;9.028;2023-02-01T16:39:44;6.57;;;1.37;;
24102;SDS011;12278;53.058;9.028;2023-02-01T16:43:44;3.77;;;2.20;;
24102;SDS011;12278;53.058;9.028;2023-02-01T16:47:47;8.50;;;1.73;;
24102;SDS011;12278;53.058;9.028;2023-02-01T16:51:54;5.23;;;2.03;;
24102;SDS011;12278;53.058;9.028;2023-02-01T16:55:59;6.20;;;1.70;;
24102;SDS011;12278;53.058;9.028;2023-02-01T17:00:00;5.70;;;1.47;;
24102;SDS011;12278;53.058;9.028;2023-02-01T17:04:04;4.40;;;1.73;;
24102;SDS011;12278;53.058;9.028;2023-02-01T17:08:05;7.43;;;1.93;;
24102;SDS011;12278;53.058;9.028;2023-02-01T17:12:17;9.57;;;3.03;;
24102;SDS011;12278;53.058;9.028;2023-02-01T17:16:25;12.33;;;3.00;;
24102;SDS011;12278;53.058;9.028;2023-02-01T17:20:29;11.80;;;2.93;;
24102;SDS011;12278;53.058;9.028;2023-02-01T17:24:31;7.50;;;2.20;;
24102;SDS011;12278;53.058;9.028;2023-02-01T17:28:32;7.87;;;2.87;;
24102;SDS011;12278;53.058;9.028;2023-02-01T17:32:33;7.30;;;2.40;;
24102;SDS011;12278;53.058;9.028;2023-02-01T17:36:33;13.83;;;2.27;;
24102;SDS011;12278;53.058;9.028;2023-02-01T17:40:35;8.57;;;1.87;;
24102;SDS011;12278;53.058;9.028;2023-02-01T17:44:36;7.43;;;2.40;;
24102;SDS011;12278;53.058;9.028;2023-02-01T17:48:37;10.03;;;2.97;;
24102;SDS011;12278;53.058;9.028;2023-02-01T17:52:38;9.00;;;2.60;;
24102;SDS011;12278;53.058;9.028;2023-02-01T17:56:38;10.27;;;2.80;;
24102;SDS011;12278;53.058;9.028;2023-02-01T18:00:39;15.77;;;3.73;;
24102;SDS011;12278;53.058;9.028;2023-02-01T18:04:40;12.97;;;3.43;;
24102;SDS011;12278;53.058;9.028;2023-02-01T18:08:41;8.00;;;3.07;;
24102;SDS011;12278;53.058;9.028;2023-02-01T18:12:42;13.17;;;3.97;;
24102;SDS011;12278;53.058;9.028;2023-02-01T18:16:43;21.30;;;3.80;;
24102;SDS011;12278;53.058;9.028;2023-02-01T18:20:51;15.60;;;3.57;;
24102;SDS011;12278;53.058;9.028;2023-02-01T18:24:52;6.97;;;3.13;;
24102;SDS011;12278;53.058;9.028;2023-02-01T18:28:53;13.13;;;3.93;;
24102;SDS011;12278;53.058;9.028;2023-02-01T18:32:54;15.53;;;3.77;;
24102;SDS011;12278;53.058;9.028;2023-02-01T18:36:57;11.37;;;4.60;;
24102;SDS011;12278;53.058;9.028;2023-02-01T18:40:57;12.20;;;3.37;;
24102;SDS011;12278;53.058;9.028;2023-02-01T18:45:00;16.03;;;3.70;;
24102;SDS011;12278;53.058;9.028;2023-02-01T18:49:01;13.10;;;3.40;;
24102;SDS011;12278;53.058;9.028;2023-02-01T18:53:02;12.97;;;4.40;;
24102;SDS011;12278;53.058;9.028;2023-02-01T18:57:12;21.13;;;4.30;;
24102;SDS011;12278;53.058;9.028;2023-02-01T19:01:16;10.17;;;3.20;;
24102;SDS011;12278;53.058;9.028;2023-02-01T19:05:18;9.60;;;4.33;;
24102;SDS011;12278;53.058;9.028;2023-02-01T19:09:19;15.33;;;2.87;;
24102;SDS011;12278;53.058;9.028;2023-02-01T19:13:20;18.60;;;4.00;;
24102;SDS011;12278;53.058;9.028;2023-02-01T19:17:23;14.20;;;3.40;;
24102;SDS011;12278;53.058;9.028;2023-02-01T19:21:24;10.00;;;3.60;;
24102;SDS011;12278;53.058;9.028;2023-02-01T19:25:25;14.20;;;3.73;;
24102;SDS011;12278;53.058;9.028;2023-02-01T19:29:27;15.03;;;4.57;;
24102;SDS011;12278;53.058;9.028;2023-02-01T19:33:30;13.13;;;4.20;;
24102;SDS011;12278;53.058;9.028;2023-02-01T19:37:31;13.10;;;3.60;;
24102;SDS011;12278;53.058;9.028;2023-02-01T19:41:34;8.83;;;3.27;;
24102;SDS011;12278;53.058;9.028;2023-02-01T19:45:34;15.90;;;3.87;;
24102;SDS011;12278;53.058;9.028;2023-02-01T19:49:35;16.70;;;3.07;;
24102;SDS011;12278;53.058;9.028;2023-02-01T19:57:42;10.93;;;3.00;;
24102;SDS011;12278;53.058;9.028;2023-02-01T20:01:43;11.77;;;2.87;;
24102;SDS011;12278;53.058;9.028;2023-02-01T20:05:49;8.70;;;2.93;;
24102;SDS011;12278;53.058;9.028;2023-02-01T20:09:51;15.83;;;4.37;;
24102;SDS011;12278;53.058;9.028;2023-02-01T20:13:52;22.07;;;4.60;;
24102;SDS011;12278;53.058;9.028;2023-02-01T20:17:53;8.47;;;3.10;;
24102;SDS011;12278;53.058;9.028;2023-02-01T20:21:57;10.43;;;2.77;;
24102;SDS011;12278;53.058;9.028;2023-02-01T20:26:09;15.87;;;4.03;;
24102;SDS011;12278;53.058;9.028;2023-02-01T20:30:11;15.07;;;4.00;;
24102;SDS011;12278;53.058;9.028;2023-02-01T20:38:53;10.10;;;3.67;;
24102;SDS011;12278;53.058;9.028;2023-02-01T20:42:56;10.47;;;4.40;;
24102;SDS011;12278;53.058;9.028;2023-02-01T20:46:57;16.00;;;4.53;;
24102;SDS011;12278;53.058;9.028;2023-02-01T20:50:58;15.20;;;3.73;;
24102;SDS011;12278;53.058;9.028;2023-02-01T20:54:59;12.93;;;4.40;;
24102;SDS011;12278;53.058;9.028;2023-02-01T21:03:22;15.37;;;3.97;;
24102;SDS011;12278;53.058;9.028;2023-02-01T21:07:23;15.10;;;3.43;;
24102;SDS011;12278;53.058;9.028;2023-02-01T21:11:23;11.37;;;3.23;;
24102;SDS011;12278;53.058;9.028;2023-02-01T21:15:24;13.37;;;4.03;;
24102;SDS011;12278;53.058;9.028;2023-02-01T21:23:44;15.87;;;4.17;;
24102;SDS011;12278;53.058;9.028;2023-02-01T21:27:55;14.93;;;3.43;;
24102;SDS011;12278;53.058;9.028;2023-02-01T21:31:55;10.67;;;3.13;;
24102;SDS011;12278;53.058;9.028;2023-02-01T21:35:56;20.20;;;4.73;;
24102;SDS011;12278;53.058;9.028;2023-02-01T21:39:58;9.87;;;2.93;;
24102;SDS011;12278;53.058;9.028;2023-02-01T21:44:13;15.03;;;3.93;;
24102;SDS011;12278;53.058;9.028;2023-02-01T21:48:14;15.70;;;3.70;;
24102;SDS011;12278;53.058;9.028;2023-02-01T21:52:15;11.13;;;3.60;;
24102;SDS011;12278;53.058;9.028;2023-02-01T21:56:16;10.10;;;3.17;;
24102;SDS011;12278;53.058;9.028;2023-02-01T22:00:17;15.73;;;4.10;;
24102;SDS011;12278;53.058;9.028;2023-02-01T22:04:18;11.80;;;3.10;;
24102;SDS011;12278;53.058;9.028;2023-02-01T22:08:18;10.00;;;4.00;;
24102;SDS011;12278;53.058;9.028;2023-02-01T22:12:19;15.23;;;3.70;;
24102;SDS011;12278;53.058;9.028;2023-02-01T22:16:20;11.03;;;3.43;;
24102;SDS011;12278;53.058;9.028;2023-02-01T22:20:21;16.77;;;3.80;;
24102;SDS011;12278;53.058;9.028;2023-02-01T22:24:22;16.83;;;3.77;;
24102;SDS011;12278;53.058;9.028;2023-02-01T22:33:00;12.67;;;3.90;;
24102;SDS011;12278;53.058;9.028;2023-02-01T22:37:01;16.00;;;3.43;;
24102;SDS011;12278;53.058;9.028;2023-02-01T22:41:03;17.10;;;3.60;;
24102;SDS011;12278;53.058;9.028;2023-02-01T22:45:05;8.80;;;2.77;;
24102;SDS011;12278;53.058;9.028;2023-02-01T22:49:06;8.97;;;3.00;;
24102;SDS011;12278;53.058;9.028;2023-02-01T22:57:33;15.73;;;3.63;;
24102;SDS011;12278;53.058;9.028;2023-02-01T23:01:35;8.70;;;3.70;;
24102;SDS011;12278;53.058;9.028;2023-02-01T23:05:35;13.37;;;3.27;;
24102;SDS011;12278;53.058;9.028;2023-02-01T23:09:36;7.17;;;4.23;;
24102;SDS011;12278;53.058;9.028;2023-02-01T23:13:37;10.43;;;3.20;;
24102;SDS011;12278;53.058;9.028;2023-02-01T23:17:38;10.43;;;2.97;;
24102;SDS011;12278;53.058;9.028;2023-02-01T23:21:40;14.30;;;3.27;;
24102;SDS011;12278;53.058;9.028;2023-02-01T23:25:40;12.90;;;3.90;;
24102;SDS011;12278;53.058;9.028;2023-02-01T23:29:49;19.70;;;4.17;;
24102;SDS011;12278;53.058;9.028;2023-02-01T23:33:50;10.67;;;3.83;;
24102;SDS011;12278;53.058;9.028;2023-02-01T23:37:54;12.67;;;3.57;;
24102;SDS011;12278;53.058;9.028;2023-02-01T23:42:10;13.43;;;3.47;;
24102;SDS011;12278;53.058;9.028;2023-02-01T23:46:10;14.43;;;3.50;;
24102;SDS011;12278;53.058;9.028;2023-02-01T23:50:14;10.33;;;4.67;;
24102;SDS011;12278;53.058;9.028;2023-02-01T23:54:15;17.10;;;3.23;;
24102;SDS011;12278;53.058;9.028;2023-02-01T23:58:16;7.97;;;3.27;;
